sensor_id;sensor_type;location;lat;lon;timestamp;pressure;altitude;pressure_sealevel;temperature;humidity
27685;BME280;46113;50.130;8.526;2023-04-02T00:01:45;98188.31;;;6.42;80.10
27685;BME280;46113;50.130;8.526;2023-04-02T00:04:30;98187.47;;;6.41;79.72
27685;BME280;46113;50.130;8.526;2023-04-02T00:07:23;98193.41;;;6.29;80.37
27685;BME280;46113;50.130;8.526;2023-04-02T00:09:56;98191.69;;;5.81;82.04
27685;BME280;46113;50.130;8.526;2023-04-02T00:12:23;98194.00;;;6.34;80.68
27685;BME280;46113;50.130;8.526;2023-04-02T00:14:52;98192.81;;;6.39;79.98
27685;BME280;46113;50.130;8.526;2023-04-02T00:17:22;98202.19;;;5.97;81.60
27685;BME280;46113;50.130;8.526;2023-04-02T00:19:54;98200.72;;;6.23;81.19
27685;BME280;46113;50.130;8.526;2023-04-02T00:22:28;98197.56;;;6.33;81.15
27685;BME280;46113;50.130;8.526;2023-04-02T00:24:55;98209.66;;;6.51;79.92
27685;BME280;46113;50.130;8.526;2023-04-02T00:27:22;98202.75;;;6.34;80.24
27685;BME280;46113;50.130;8.526;2023-04-02T00:29:51;98202.31;;;6.26;80.54
27685;BME280;46113;50.130;8.526;2023-04-02T00:32:25;98206.56;;;6.29;81.02
27685;BME280;46113;50.130;8.526;2023-04-02T00:34:53;98210.72;;;6.33;80.27
27685;BME280;46113;50.130;8.526;2023-04-02T00:37:22;98209.31;;;6.42;79.85
27685;BME280;46113;50.130;8.526;2023-04-02T00:39:54;98217.28;;;6.40;80.03
27685;BME280;46113;50.130;8.526;2023-04-02T00:42:22;98215.44;;;6.42;79.63
27685;BME280;46113;50.130;8.526;2023-04-02T00:44:52;98220.84;;;6.55;79.59
27685;BME280;46113;50.130;8.526;2023-04-02T00:47:26;98220.75;;;6.57;79.38
27685;BME280;46113;50.130;8.526;2023-04-02T00:49:58;98223.13;;;6.45;79.45
27685;BME280;46113;50.130;8.526;2023-04-02T00:52:29;98230.41;;;6.56;79.46
27685;BME280;46113;50.130;8.526;2023-04-02T00:55:04;98231.00;;;6.45;79.88
27685;BME280;46113;50.130;8.526;2023-04-02T00:57:32;98234.41;;;6.47;79.30
27685;BME280;46113;50.130;8.526;2023-04-02T01:00:24;98233.88;;;6.57;79.54
27685;BME280;46113;50.130;8.526;2023-04-02T01:03:14;98237.94;;;6.62;78.95
27685;BME280;46113;50.130;8.526;2023-04-02T01:06:12;98233.41;;;6.50;79.09
27685;BME280;46113;50.130;8.526;2023-04-02T01:14:36;98238.47;;;6.53;80.02
27685;BME280;46113;50.130;8.526;2023-04-02T01:22:47;98253.66;;;6.48;79.44
27685;BME280;46113;50.130;8.526;2023-04-02T01:25:38;98251.88;;;6.48;79.59
27685;BME280;46113;50.130;8.526;2023-04-02T01:28:19;98254.56;;;6.63;79.29
27685;BME280;46113;50.130;8.526;2023-04-02T01:30:52;98264.91;;;6.66;79.24
27685;BME280;46113;50.130;8.526;2023-04-02T01:33:21;98252.38;;;6.55;79.82
27685;BME280;46113;50.130;8.526;2023-04-02T01:35:56;98254.41;;;6.50;80.06
27685;BME280;46113;50.130;8.526;2023-04-02T01:38:29;98258.66;;;6.52;79.38
27685;BME280;46113;50.130;8.526;2023-04-02T01:41:04;98260.47;;;6.36;80.17
27685;BME280;46113;50.130;8.526;2023-04-02T01:46:24;98271.03;;;6.34;80.34
27685;BME280;46113;50.130;8.526;2023-04-02T01:48:53;98273.13;;;6.60;79.38
27685;BME280;46113;50.130;8.526;2023-04-02T01:51:31;98281.28;;;6.39;79.71
27685;BME280;46113;50.130;8.526;2023-04-02T01:54:03;98283.63;;;6.60;79.25
27685;BME280;46113;50.130;8.526;2023-04-02T01:56:29;98292.13;;;6.49;79.77
27685;BME280;46113;50.130;8.526;2023-04-02T01:58:57;98288.88;;;6.60;79.17
27685;BME280;46113;50.130;8.526;2023-04-02T02:01:33;98296.16;;;6.71;79.25
27685;BME280;46113;50.130;8.526;2023-04-02T02:04:01;98298.97;;;6.68;79.07
27685;BME280;46113;50.130;8.526;2023-04-02T02:06:28;98298.66;;;6.58;79.56
27685;BME280;46113;50.130;8.526;2023-04-02T02:09:02;98298.13;;;6.67;78.86
27685;BME280;46113;50.130;8.526;2023-04-02T02:11:31;98296.75;;;6.76;79.13
27685;BME280;46113;50.130;8.526;2023-04-02T02:14:00;98305.75;;;6.72;78.66
27685;BME280;46113;50.130;8.526;2023-04-02T02:16:28;98305.34;;;6.63;79.12
27685;BME280;46113;50.130;8.526;2023-04-02T02:19:00;98303.06;;;6.41;80.12
27685;BME280;46113;50.130;8.526;2023-04-02T02:23:55;98308.31;;;6.57;79.07
27685;BME280;46113;50.130;8.526;2023-04-02T02:26:24;98312.53;;;6.60;78.99
27685;BME280;46113;50.130;8.526;2023-04-02T02:28:55;98318.50;;;6.63;79.08
27685;BME280;46113;50.130;8.526;2023-04-02T02:31:28;98326.97;;;6.69;78.86
27685;BME280;46113;50.130;8.526;2023-04-02T02:34:24;98330.25;;;6.72;78.73
27685;BME280;46113;50.130;8.526;2023-04-02T02:36:55;98324.50;;;6.49;79.41
27685;BME280;46113;50.130;8.526;2023-04-02T02:39:33;98334.25;;;6.63;78.82
27685;BME280;46113;50.130;8.526;2023-04-02T02:44:53;98349.16;;;6.63;79.16
27685;BME280;46113;50.130;8.526;2023-04-02T02:47:25;98348.06;;;6.51;79.06
27685;BME280;46113;50.130;8.526;2023-04-02T02:49:59;98348.66;;;6.24;80.57
27685;BME280;46113;50.130;8.526;2023-04-02T02:52:30;98353.22;;;6.36;80.24
27685;BME280;46113;50.130;8.526;2023-04-02T02:55:10;98350.78;;;6.49;79.55
27685;BME280;46113;50.130;8.526;2023-04-02T02:58:06;98354.94;;;6.54;79.20
27685;BME280;46113;50.130;8.526;2023-04-02T03:00:46;98366.13;;;6.57;79.58
27685;BME280;46113;50.130;8.526;2023-04-02T03:03:17;98365.19;;;6.42;79.09
27685;BME280;46113;50.130;8.526;2023-04-02T03:05:56;98362.22;;;6.48;79.91
27685;BME280;46113;50.130;8.526;2023-04-02T03:08:37;98363.84;;;6.51;79.21
27685;BME280;46113;50.130;8.526;2023-04-02T03:11:18;98370.38;;;6.44;79.59
27685;BME280;46113;50.130;8.526;2023-04-02T03:13:52;98370.97;;;6.49;79.39
27685;BME280;46113;50.130;8.526;2023-04-02T03:16:32;98372.81;;;6.63;79.20
27685;BME280;46113;50.130;8.526;2023-04-02T03:19:06;98380.28;;;6.38;80.45
27685;BME280;46113;50.130;8.526;2023-04-02T03:21:56;98379.38;;;6.56;79.23
27685;BME280;46113;50.130;8.526;2023-04-02T03:27:21;98388.44;;;6.50;79.03
27685;BME280;46113;50.130;8.526;2023-04-02T03:30:35;98395.13;;;6.56;79.47
27685;BME280;46113;50.130;8.526;2023-04-02T03:32:42;98399.84;;;6.65;78.91
27685;BME280;46113;50.130;8.526;2023-04-02T03:35:18;98403.06;;;6.70;78.52
27685;BME280;46113;50.130;8.526;2023-04-02T03:37:54;98409.53;;;6.64;78.36
27685;BME280;46113;50.130;8.526;2023-04-02T03:40:28;98414.13;;;6.61;78.25
27685;BME280;46113;50.130;8.526;2023-04-02T03:45:49;98414.94;;;6.45;79.24
27685;BME280;46113;50.130;8.526;2023-04-02T03:48:23;98413.75;;;6.51;78.98
27685;BME280;46113;50.130;8.526;2023-04-02T03:51:03;98414.53;;;6.53;79.20
27685;BME280;46113;50.130;8.526;2023-04-02T03:53:32;98425.38;;;6.47;78.71
27685;BME280;46113;50.130;8.526;2023-04-02T03:56:00;98427.78;;;6.18;79.91
27685;BME280;46113;50.130;8.526;2023-04-02T03:58:38;98431.47;;;6.47;79.40
27685;BME280;46113;50.130;8.526;2023-04-02T04:01:19;98438.69;;;6.60;79.20
27685;BME280;46113;50.130;8.526;2023-04-02T04:03:52;98442.63;;;6.69;78.51
27685;BME280;46113;50.130;8.526;2023-04-02T04:06:23;98442.63;;;6.69;78.85
27685;BME280;46113;50.130;8.526;2023-04-02T04:08:58;98447.09;;;6.67;78.30
27685;BME280;46113;50.130;8.526;2023-04-02T04:11:34;98448.38;;;6.59;78.82
27685;BME280;46113;50.130;8.526;2023-04-02T04:14:08;98456.84;;;6.64;78.66
27685;BME280;46113;50.130;8.526;2023-04-02T04:16:50;98457.97;;;6.76;78.17
27685;BME280;46113;50.130;8.526;2023-04-02T04:19:32;98464.81;;;6.63;78.57
27685;BME280;46113;50.130;8.526;2023-04-02T04:22:17;98463.38;;;6.73;78.08
27685;BME280;46113;50.130;8.526;2023-04-02T04:24:49;98465.50;;;6.67;78.67
27685;BME280;46113;50.130;8.526;2023-04-02T04:27:23;98464.66;;;6.66;78.50
27685;BME280;46113;50.130;8.526;2023-04-02T04:30:15;98474.56;;;6.61;78.48
27685;BME280;46113;50.130;8.526;2023-04-02T04:32:52;98481.06;;;6.54;78.40
27685;BME280;46113;50.130;8.526;2023-04-02T04:35:28;98479.72;;;6.62;78.42
27685;BME280;46113;50.130;8.526;2023-04-02T04:38:02;98480.16;;;6.71;78.31
27685;BME280;46113;50.130;8.526;2023-04-02T04:40:33;98491.78;;;6.67;78.48
27685;BME280;46113;50.130;8.526;2023-04-02T04:43:08;98499.25;;;6.74;78.28
27685;BME280;46113;50.130;8.526;2023-04-02T04:45:47;98496.47;;;6.77;78.50
27685;BME280;46113;50.130;8.526;2023-04-02T04:48:23;98497.97;;;6.65;78.75
27685;BME280;46113;50.130;8.526;2023-04-02T04:51:03;98501.94;;;6.57;79.08
27685;BME280;46113;50.130;8.526;2023-04-02T04:53:32;98511.63;;;6.72;78.23
27685;BME280;46113;50.130;8.526;2023-04-02T04:56:02;98511.72;;;6.71;78.34
27685;BME280;46113;50.130;8.526;2023-04-02T05:02:07;98539.88;;;5.82;79.74
27685;BME280;46113;50.130;8.526;2023-04-02T05:04:40;98545.84;;;5.49;79.46
27685;BME280;46113;50.130;8.526;2023-04-02T05:07:22;98548.03;;;5.39;78.84
27685;BME280;46113;50.130;8.526;2023-04-02T05:13:03;98566.13;;;5.26;79.64
27685;BME280;46113;50.130;8.526;2023-04-02T05:16:20;98570.28;;;4.91;80.03
27685;BME280;46113;50.130;8.526;2023-04-02T05:18:57;98576.75;;;5.23;79.67
27685;BME280;46113;50.130;8.526;2023-04-02T05:21:33;98584.84;;;5.18;79.20
27685;BME280;46113;50.130;8.526;2023-04-02T05:27:08;98597.16;;;4.97;79.97
27685;BME280;46113;50.130;8.526;2023-04-02T05:29:40;98601.28;;;5.22;79.27
27685;BME280;46113;50.130;8.526;2023-04-02T05:32:19;98608.44;;;5.37;78.94
27685;BME280;46113;50.130;8.526;2023-04-02T05:34:52;98608.50;;;5.16;79.17
27685;BME280;46113;50.130;8.526;2023-04-02T05:37:23;98610.97;;;5.00;79.10
27685;BME280;46113;50.130;8.526;2023-04-02T05:39:55;98616.44;;;4.96;78.40
27685;BME280;46113;50.130;8.526;2023-04-02T05:42:27;98622.94;;;4.87;79.88
27685;BME280;46113;50.130;8.526;2023-04-02T05:45:19;98624.06;;;5.00;78.69
27685;BME280;46113;50.130;8.526;2023-04-02T05:47:49;98627.63;;;4.99;78.26
27685;BME280;46113;50.130;8.526;2023-04-02T05:50:32;98627.84;;;4.95;78.24
27685;BME280;46113;50.130;8.526;2023-04-02T05:55:57;98650.16;;;5.03;76.85
27685;BME280;46113;50.130;8.526;2023-04-02T05:58:36;98646.13;;;4.96;75.32
27685;BME280;46113;50.130;8.526;2023-04-02T06:01:18;98655.09;;;4.90;74.87
27685;BME280;46113;50.130;8.526;2023-04-02T06:07:56;98669.25;;;4.86;75.68
27685;BME280;46113;50.130;8.526;2023-04-02T06:10:34;98680.59;;;4.87;75.75
27685;BME280;46113;50.130;8.526;2023-04-02T06:13:10;98682.50;;;5.04;75.83
27685;BME280;46113;50.130;8.526;2023-04-02T06:15:42;98692.13;;;4.83;76.01
27685;BME280;46113;50.130;8.526;2023-04-02T06:20:47;98705.69;;;4.72;76.25
27685;BME280;46113;50.130;8.526;2023-04-02T06:26:08;98721.31;;;4.32;74.69
27685;BME280;46113;50.130;8.526;2023-04-02T06:28:43;98727.16;;;3.94;74.93
27685;BME280;46113;50.130;8.526;2023-04-02T06:31:38;98727.16;;;4.16;74.75
27685;BME280;46113;50.130;8.526;2023-04-02T06:34:15;98731.06;;;4.28;74.84
27685;BME280;46113;50.130;8.526;2023-04-02T06:36:50;98739.69;;;4.08;74.84
27685;BME280;46113;50.130;8.526;2023-04-02T06:39:25;98747.38;;;4.12;75.17
27685;BME280;46113;50.130;8.526;2023-04-02T06:41:58;98756.41;;;4.04;75.64
27685;BME280;46113;50.130;8.526;2023-04-02T06:44:55;98762.75;;;3.98;75.19
27685;BME280;46113;50.130;8.526;2023-04-02T06:47:54;98761.72;;;4.24;74.58
27685;BME280;46113;50.130;8.526;2023-04-02T06:54:25;98779.69;;;4.34;74.29
27685;BME280;46113;50.130;8.526;2023-04-02T07:00:40;98795.22;;;4.16;74.79
27685;BME280;46113;50.130;8.526;2023-04-02T07:03:19;98799.50;;;3.71;75.95
27685;BME280;46113;50.130;8.526;2023-04-02T07:05:49;98805.78;;;3.91;75.42
27685;BME280;46113;50.130;8.526;2023-04-02T07:08:16;98816.00;;;3.97;74.87
27685;BME280;46113;50.130;8.526;2023-04-02T07:11:05;98812.25;;;4.04;74.73
27685;BME280;46113;50.130;8.526;2023-04-02T07:13:36;98822.38;;;3.66;74.80
27685;BME280;46113;50.130;8.526;2023-04-02T07:16:03;98822.56;;;3.85;74.78
27685;BME280;46113;50.130;8.526;2023-04-02T07:18:32;98830.34;;;3.63;74.92
27685;BME280;46113;50.130;8.526;2023-04-02T07:21:03;98839.94;;;3.87;74.70
27685;BME280;46113;50.130;8.526;2023-04-02T07:23:29;98846.78;;;3.66;74.65
27685;BME280;46113;50.130;8.526;2023-04-02T07:25:56;98845.38;;;3.81;74.66
27685;BME280;46113;50.130;8.526;2023-04-02T07:28:24;98850.69;;;3.80;74.27
27685;BME280;46113;50.130;8.526;2023-04-02T07:30:51;98853.56;;;3.72;75.16
27685;BME280;46113;50.130;8.526;2023-04-02T07:33:20;98860.78;;;3.65;74.26
27685;BME280;46113;50.130;8.526;2023-04-02T07:35:48;98871.06;;;3.70;74.78
27685;BME280;46113;50.130;8.526;2023-04-02T07:38:15;98879.84;;;3.69;73.88
27685;BME280;46113;50.130;8.526;2023-04-02T07:40:42;98886.91;;;3.67;73.81
27685;BME280;46113;50.130;8.526;2023-04-02T07:43:09;98891.09;;;3.71;74.19
27685;BME280;46113;50.130;8.526;2023-04-02T07:45:36;98889.97;;;3.78;74.92
27685;BME280;46113;50.130;8.526;2023-04-02T07:48:08;98901.97;;;3.84;73.80
27685;BME280;46113;50.130;8.526;2023-04-02T07:50:35;98899.53;;;4.05;73.60
27685;BME280;46113;50.130;8.526;2023-04-02T07:53:02;98904.94;;;3.74;73.64
27685;BME280;46113;50.130;8.526;2023-04-02T07:55:29;98905.50;;;3.83;73.53
27685;BME280;46113;50.130;8.526;2023-04-02T07:57:57;98901.56;;;3.96;73.77
27685;BME280;46113;50.130;8.526;2023-04-02T08:00:26;98922.75;;;3.89;73.69
27685;BME280;46113;50.130;8.526;2023-04-02T08:02:58;98923.84;;;3.57;73.34
27685;BME280;46113;50.130;8.526;2023-04-02T08:05:24;98928.00;;;3.89;72.79
27685;BME280;46113;50.130;8.526;2023-04-02T08:07:55;98925.91;;;4.22;73.36
27685;BME280;46113;50.130;8.526;2023-04-02T08:10:23;98929.38;;;3.46;73.26
27685;BME280;46113;50.130;8.526;2023-04-02T08:12:50;98933.72;;;3.74;73.44
27685;BME280;46113;50.130;8.526;2023-04-02T08:15:17;98943.22;;;3.50;72.92
27685;BME280;46113;50.130;8.526;2023-04-02T08:17:46;98941.13;;;4.12;72.35
27685;BME280;46113;50.130;8.526;2023-04-02T08:20:20;98943.56;;;3.92;72.12
27685;BME280;46113;50.130;8.526;2023-04-02T08:22:50;98958.25;;;4.21;72.30
27685;BME280;46113;50.130;8.526;2023-04-02T08:25:20;98962.34;;;4.05;71.99
27685;BME280;46113;50.130;8.526;2023-04-02T08:27:47;98962.75;;;4.18;72.03
27685;BME280;46113;50.130;8.526;2023-04-02T08:33:36;98979.03;;;4.26;72.06
27685;BME280;46113;50.130;8.526;2023-04-02T08:36:17;98975.84;;;3.92;71.69
27685;BME280;46113;50.130;8.526;2023-04-02T08:38:45;98989.91;;;3.90;72.01
27685;BME280;46113;50.130;8.526;2023-04-02T08:41:20;98996.69;;;3.95;71.75
27685;BME280;46113;50.130;8.526;2023-04-02T08:43:59;98991.13;;;3.79;71.99
27685;BME280;46113;50.130;8.526;2023-04-02T08:49:19;99009.47;;;4.05;72.22
27685;BME280;46113;50.130;8.526;2023-04-02T08:51:50;99016.38;;;3.80;71.67
27685;BME280;46113;50.130;8.526;2023-04-02T08:54:23;99014.44;;;4.12;71.62
27685;BME280;46113;50.130;8.526;2023-04-02T08:56:57;99023.72;;;4.21;71.72
27685;BME280;46113;50.130;8.526;2023-04-02T08:59:35;99027.34;;;3.92;71.08
27685;BME280;46113;50.130;8.526;2023-04-02T09:04:38;99037.25;;;4.34;71.59
27685;BME280;46113;50.130;8.526;2023-04-02T09:07:11;99038.13;;;4.83;71.28
27685;BME280;46113;50.130;8.526;2023-04-02T09:09:39;99049.56;;;4.56;69.61
27685;BME280;46113;50.130;8.526;2023-04-02T09:12:16;99056.41;;;4.35;70.53
27685;BME280;46113;50.130;8.526;2023-04-02T09:17:36;99065.59;;;4.72;69.82
27685;BME280;46113;50.130;8.526;2023-04-02T09:20:22;99067.69;;;4.86;70.17
27685;BME280;46113;50.130;8.526;2023-04-02T09:28:03;99074.91;;;4.30;69.84
27685;BME280;46113;50.130;8.526;2023-04-02T09:30:35;99093.56;;;4.96;70.04
27685;BME280;46113;50.130;8.526;2023-04-02T09:33:06;99091.31;;;4.61;70.44
27685;BME280;46113;50.130;8.526;2023-04-02T09:35:35;99102.59;;;4.63;70.16
27685;BME280;46113;50.130;8.526;2023-04-02T09:40:58;99097.94;;;4.71;69.15
27685;BME280;46113;50.130;8.526;2023-04-02T09:43:36;99106.22;;;4.59;69.69
27685;BME280;46113;50.130;8.526;2023-04-02T09:48:39;99117.66;;;4.82;68.19
27685;BME280;46113;50.130;8.526;2023-04-02T09:51:23;99124.06;;;4.22;68.79
27685;BME280;46113;50.130;8.526;2023-04-02T09:56:38;99140.34;;;4.57;67.74
27685;BME280;46113;50.130;8.526;2023-04-02T10:01:32;99142.66;;;4.41;68.39
27685;BME280;46113;50.130;8.526;2023-04-02T10:04:01;99153.34;;;4.08;68.84
27685;BME280;46113;50.130;8.526;2023-04-02T10:06:29;99152.91;;;4.47;69.19
27685;BME280;46113;50.130;8.526;2023-04-02T10:08:56;99159.41;;;4.10;69.20
27685;BME280;46113;50.130;8.526;2023-04-02T10:11:30;99154.28;;;4.32;68.27
27685;BME280;46113;50.130;8.526;2023-04-02T10:14:45;99169.75;;;3.86;69.09
27685;BME280;46113;50.130;8.526;2023-04-02T10:57:58;99227.59;;;4.86;66.58
27685;BME280;46113;50.130;8.526;2023-04-02T11:01:46;99245.31;;;4.25;66.41
27685;BME280;46113;50.130;8.526;2023-04-02T11:17:03;99268.16;;;4.49;67.23
27685;BME280;46113;50.130;8.526;2023-04-02T11:23:31;99274.84;;;4.58;66.13
27685;BME280;46113;50.130;8.526;2023-04-02T11:26:41;99282.69;;;4.31;66.25
27685;BME280;46113;50.130;8.526;2023-04-02T11:39:46;99314.16;;;4.00;65.39
27685;BME280;46113;50.130;8.526;2023-04-02T11:49:38;99327.34;;;3.66;65.70
27685;BME280;46113;50.130;8.526;2023-04-02T11:52:33;99322.03;;;3.35;66.00
27685;BME280;46113;50.130;8.526;2023-04-02T11:55:29;99335.59;;;3.50;66.04
27685;BME280;46113;50.130;8.526;2023-04-02T12:11:06;99364.94;;;3.28;65.77
27685;BME280;46113;50.130;8.526;2023-04-02T12:13:58;99363.31;;;3.23;66.16
27685;BME280;46113;50.130;8.526;2023-04-02T12:16:50;99385.59;;;3.39;65.25
27685;BME280;46113;50.130;8.526;2023-04-02T12:19:29;99377.38;;;3.18;64.99
27685;BME280;46113;50.130;8.526;2023-04-02T12:22:03;99375.28;;;2.98;64.75
27685;BME280;46113;50.130;8.526;2023-04-02T12:27:44;99385.97;;;3.58;64.89
27685;BME280;46113;50.130;8.526;2023-04-02T12:33:52;99400.53;;;3.34;64.85
27685;BME280;46113;50.130;8.526;2023-04-02T12:36:24;99405.88;;;3.29;64.70
27685;BME280;46113;50.130;8.526;2023-04-02T12:38:58;99404.06;;;3.68;63.96
27685;BME280;46113;50.130;8.526;2023-04-02T12:41:52;99424.25;;;2.90;64.24
27685;BME280;46113;50.130;8.526;2023-04-02T12:44:46;99417.31;;;3.62;64.29
27685;BME280;46113;50.130;8.526;2023-04-02T12:47:56;99419.13;;;3.58;64.34
27685;BME280;46113;50.130;8.526;2023-04-02T12:50:43;99424.31;;;3.25;64.23
27685;BME280;46113;50.130;8.526;2023-04-02T12:53:49;99445.09;;;2.93;64.86
27685;BME280;46113;50.130;8.526;2023-04-02T12:56:18;99433.81;;;2.51;65.92
27685;BME280;46113;50.130;8.526;2023-04-02T12:59:03;99442.63;;;2.47;65.92
27685;BME280;46113;50.130;8.526;2023-04-02T13:01:57;99432.63;;;2.65;65.73
27685;BME280;46113;50.130;8.526;2023-04-02T13:04:24;99453.00;;;2.90;65.30
27685;BME280;46113;50.130;8.526;2023-04-02T13:06:56;99448.19;;;2.71;65.11
27685;BME280;46113;50.130;8.526;2023-04-02T13:09:33;99460.56;;;2.63;65.19
27685;BME280;46113;50.130;8.526;2023-04-02T13:12:02;99456.00;;;2.32;65.54
27685;BME280;46113;50.130;8.526;2023-04-02T13:14:33;99448.59;;;2.52;66.00
27685;BME280;46113;50.130;8.526;2023-04-02T13:23:47;99479.94;;;2.10;65.99
27685;BME280;46113;50.130;8.526;2023-04-02T13:26:44;99474.78;;;2.49;65.64
27685;BME280;46113;50.130;8.526;2023-04-02T13:32:05;99485.00;;;2.60;66.19
27685;BME280;46113;50.130;8.526;2023-04-02T13:34:52;99500.06;;;2.03;65.51
27685;BME280;46113;50.130;8.526;2023-04-02T13:49:41;99522.63;;;2.06;65.20
27685;BME280;46113;50.130;8.526;2023-04-02T13:53:55;99519.31;;;1.96;64.44
27685;BME280;46113;50.130;8.526;2023-04-02T14:02:00;99524.59;;;1.93;64.94
27685;BME280;46113;50.130;8.526;2023-04-02T14:05:18;99529.41;;;2.14;64.15
27685;BME280;46113;50.130;8.526;2023-04-02T14:20:11;99559.94;;;2.12;62.69
27685;BME280;46113;50.130;8.526;2023-04-02T14:25:39;99572.38;;;1.96;61.94
27685;BME280;46113;50.130;8.526;2023-04-02T14:35:55;99567.03;;;2.02;60.90
27685;BME280;46113;50.130;8.526;2023-04-02T14:38:32;99566.63;;;2.26;60.63
27685;BME280;46113;50.130;8.526;2023-04-02T14:41:13;99570.63;;;2.46;59.70
27685;BME280;46113;50.130;8.526;2023-04-02T14:43:50;99563.97;;;2.73;59.29
27685;BME280;46113;50.130;8.526;2023-04-02T14:46:18;99586.44;;;2.82;58.71
27685;BME280;46113;50.130;8.526;2023-04-02T14:49:00;99577.31;;;2.61;59.56
27685;BME280;46113;50.130;8.526;2023-04-02T14:51:35;99585.78;;;2.72;58.89
27685;BME280;46113;50.130;8.526;2023-04-02T14:56:57;99583.19;;;2.71;58.23
27685;BME280;46113;50.130;8.526;2023-04-02T14:59:36;99597.59;;;2.48;57.79
27685;BME280;46113;50.130;8.526;2023-04-02T15:02:17;99598.84;;;2.72;58.56
27685;BME280;46113;50.130;8.526;2023-04-02T15:04:58;99596.09;;;3.21;58.11
27685;BME280;46113;50.130;8.526;2023-04-02T15:07:34;99606.47;;;2.83;56.96
27685;BME280;46113;50.130;8.526;2023-04-02T15:10:28;99615.41;;;2.25;57.35
27685;BME280;46113;50.130;8.526;2023-04-02T15:12:57;99611.91;;;2.25;57.75
27685;BME280;46113;50.130;8.526;2023-04-02T15:18:14;99617.63;;;2.46;56.63
27685;BME280;46113;50.130;8.526;2023-04-02T15:23:36;99616.84;;;2.42;55.85
27685;BME280;46113;50.130;8.526;2023-04-02T15:26:14;99614.94;;;2.50;56.58
27685;BME280;46113;50.130;8.526;2023-04-02T15:32:00;99618.66;;;2.37;56.49
27685;BME280;46113;50.130;8.526;2023-04-02T15:34:45;99626.53;;;2.34;56.69
27685;BME280;46113;50.130;8.526;2023-04-02T15:39:50;99641.78;;;2.57;54.90
27685;BME280;46113;50.130;8.526;2023-04-02T15:42:26;99650.94;;;2.33;55.22
27685;BME280;46113;50.130;8.526;2023-04-02T15:50:13;99649.75;;;2.51;56.03
27685;BME280;46113;50.130;8.526;2023-04-02T15:55:25;99661.97;;;2.50;54.64
27685;BME280;46113;50.130;8.526;2023-04-02T15:58:13;99661.06;;;2.51;54.09
27685;BME280;46113;50.130;8.526;2023-04-02T16:06:19;99667.66;;;2.21;54.36
27685;BME280;46113;50.130;8.526;2023-04-02T16:09:13;99674.13;;;1.99;54.29
27685;BME280;46113;50.130;8.526;2023-04-02T16:11:43;99665.56;;;1.89;54.59
27685;BME280;46113;50.130;8.526;2023-04-02T16:14:23;99678.59;;;1.91;55.17
27685;BME280;46113;50.130;8.526;2023-04-02T16:16:54;99679.97;;;2.14;54.44
27685;BME280;46113;50.130;8.526;2023-04-02T16:19:35;99680.13;;;2.05;55.16
27685;BME280;46113;50.130;8.526;2023-04-02T16:22:28;99691.38;;;2.10;55.32
27685;BME280;46113;50.130;8.526;2023-04-02T16:24:59;99687.44;;;1.81;54.03
27685;BME280;46113;50.130;8.526;2023-04-02T16:27:34;99691.88;;;1.75;54.54
27685;BME280;46113;50.130;8.526;2023-04-02T16:33:29;99705.25;;;2.12;54.08
27685;BME280;46113;50.130;8.526;2023-04-02T16:36:09;99723.97;;;1.81;55.03
27685;BME280;46113;50.130;8.526;2023-04-02T16:39:07;99712.28;;;2.07;54.70
27685;BME280;46113;50.130;8.526;2023-04-02T16:41:45;99713.59;;;1.76;54.52
27685;BME280;46113;50.130;8.526;2023-04-02T16:50:02;99724.81;;;1.83;54.88
27685;BME280;46113;50.130;8.526;2023-04-02T16:53:14;99731.91;;;1.71;54.35
27685;BME280;46113;50.130;8.526;2023-04-02T16:56:00;99731.69;;;1.88;53.83
27685;BME280;46113;50.130;8.526;2023-04-02T17:01:22;99737.22;;;1.65;54.62
27685;BME280;46113;50.130;8.526;2023-04-02T17:04:21;99736.22;;;1.74;54.15
27685;BME280;46113;50.130;8.526;2023-04-02T17:12:13;99751.00;;;1.73;55.34
27685;BME280;46113;50.130;8.526;2023-04-02T17:17:52;99756.88;;;1.93;54.69
27685;BME280;46113;50.130;8.526;2023-04-02T17:20:22;99763.34;;;1.60;56.31
27685;BME280;46113;50.130;8.526;2023-04-02T17:22:49;99768.25;;;1.85;55.48
27685;BME280;46113;50.130;8.526;2023-04-02T17:25:20;99765.53;;;1.95;55.09
27685;BME280;46113;50.130;8.526;2023-04-02T17:27:53;99774.69;;;1.58;55.40
27685;BME280;46113;50.130;8.526;2023-04-02T17:30:48;99781.25;;;1.90;55.73
27685;BME280;46113;50.130;8.526;2023-04-02T17:33:17;99780.06;;;2.11;55.62
27685;BME280;46113;50.130;8.526;2023-04-02T17:36:33;99787.25;;;1.97;56.17
27685;BME280;46113;50.130;8.526;2023-04-02T17:45:00;99808.41;;;1.75;55.70
27685;BME280;46113;50.130;8.526;2023-04-02T17:48:10;99820.50;;;1.82;55.95
27685;BME280;46113;50.130;8.526;2023-04-02T17:50:58;99828.22;;;1.90;55.57
27685;BME280;46113;50.130;8.526;2023-04-02T18:01:56;99858.88;;;1.71;55.90
27685;BME280;46113;50.130;8.526;2023-04-02T18:04:31;99864.88;;;1.79;55.93
27685;BME280;46113;50.130;8.526;2023-04-02T18:07:22;99866.69;;;1.71;54.35
27685;BME280;46113;50.130;8.526;2023-04-02T18:23:32;99894.31;;;1.92;54.70
27685;BME280;46113;50.130;8.526;2023-04-02T18:26:55;99890.16;;;1.74;57.22
27685;BME280;46113;50.130;8.526;2023-04-02T18:37:42;99916.31;;;1.69;57.64
27685;BME280;46113;50.130;8.526;2023-04-02T18:43:24;99916.09;;;1.86;56.46
27685;BME280;46113;50.130;8.526;2023-04-02T18:51:23;99923.78;;;2.02;56.03
27685;BME280;46113;50.130;8.526;2023-04-02T18:56:42;99937.16;;;1.71;58.43
27685;BME280;46113;50.130;8.526;2023-04-02T18:59:30;99937.31;;;1.55;59.78
27685;BME280;46113;50.130;8.526;2023-04-02T19:02:09;99943.16;;;1.81;59.66
27685;BME280;46113;50.130;8.526;2023-04-02T19:04:50;99950.88;;;1.90;59.17
27685;BME280;46113;50.130;8.526;2023-04-02T19:07:18;99949.13;;;1.89;58.95
27685;BME280;46113;50.130;8.526;2023-04-02T19:09:47;99953.69;;;1.68;58.73
27685;BME280;46113;50.130;8.526;2023-04-02T19:12:19;99951.72;;;1.94;58.50
27685;BME280;46113;50.130;8.526;2023-04-02T19:14:47;99958.63;;;1.96;57.49
27685;BME280;46113;50.130;8.526;2023-04-02T19:20:35;99954.16;;;2.06;58.16
27685;BME280;46113;50.130;8.526;2023-04-02T19:33:31;99968.19;;;1.99;60.03
27685;BME280;46113;50.130;8.526;2023-04-02T19:41:38;99968.66;;;1.47;61.50
27685;BME280;46113;50.130;8.526;2023-04-02T19:44:12;99969.53;;;1.49;59.50